createdAt,value
2018-10-07T00:01:41.242Z,63.77
2018-10-07T00:05:45.357Z,63.98
2018-10-07T00:09:49.786Z,63.79
2018-10-07T00:13:53.755Z,63.66
2018-10-07T00:17:58.774Z,63.76
2018-10-07T00:22:02.919Z,63.44
2018-10-07T00:26:09.090Z,63.83
2018-10-07T00:30:15.077Z,63.80
2018-10-07T00:34:19.379Z,64.44
2018-10-07T00:38:23.395Z,64.52
2018-10-07T00:42:27.602Z,63.90
2018-10-07T00:46:31.929Z,64.07
2018-10-07T00:50:36.124Z,64.60
2018-10-07T00:54:40.685Z,64.10
2018-10-07T00:58:45.014Z,64.44
2018-10-07T01:02:49.557Z,64.34
2018-10-07T01:06:54.260Z,64.68
2018-10-07T01:10:58.385Z,64.66
2018-10-07T01:15:02.636Z,64.60
2018-10-07T01:19:07.073Z,64.96
2018-10-07T01:23:12.480Z,64.91
2018-10-07T02:02:11.143Z,66.22
2018-10-07T02:06:16.215Z,66.31
2018-10-07T02:10:20.603Z,66.57
2018-10-07T02:14:47.192Z,66.61
2018-10-07T02:18:51.410Z,66.34
2018-10-07T02:22:55.655Z,66.65
2018-10-07T02:27:00.674Z,66.93
2018-10-07T02:31:28.215Z,67.18
2018-10-07T02:40:50.665Z,66.97
2018-10-07T02:54:11.409Z,67.80
2018-10-07T02:58:15.824Z,67.64
2018-10-07T03:02:19.942Z,67.69
2018-10-07T03:06:24.143Z,67.98
2018-10-07T03:10:28.275Z,67.68
2018-10-07T03:28:39.545Z,68.14
2018-10-07T03:32:48.683Z,67.99
2018-10-07T04:09:30.317Z,68.79
2018-10-07T04:18:24.615Z,69.33
2018-10-07T04:22:28.860Z,69.26
2018-10-07T04:49:47.104Z,70.72
2018-10-07T04:53:51.762Z,70.61
2018-10-07T04:57:55.982Z,70.51
2018-10-07T05:06:55.550Z,70.90
2018-10-07T05:19:49.999Z,70.71
2018-10-07T05:23:57.397Z,70.68
2018-10-07T21:32:53.744Z,67.38
2018-10-07T21:36:58.171Z,67.38
2018-10-07T21:41:02.310Z,66.78
2018-10-07T21:45:06.821Z,67.03
2018-10-07T21:49:11.019Z,68.01
2018-10-07T21:53:15.348Z,68.07
2018-10-07T22:16:11.623Z,67.55
2018-10-07T22:24:59.303Z,68.38
2018-10-07T22:33:41.283Z,68.17
2018-10-07T22:42:14.709Z,68.81
2018-10-07T22:46:18.926Z,68.19
2018-10-07T23:18:08.908Z,69.61
2018-10-07T23:22:13.264Z,68.78
2018-10-07T23:58:42.031Z,69.53
